Time;durP1;ratioP1;P1;durP2;ratioP2;P2;SDS_P1;SDS_P2;PMS_P1;PMS_P2;Temp;Humidity;BMP_temperature;BMP_pressure;BME280_temperature;BME280_humidity;BME280_pressure;Samples;Min_cycle;Max_cycle;Signal;HPM_P1;HPM_P2
2022/04/14 00:02:04;;;;;;;0.77;0.77;;;7.80;99.90;;;;;;5222274;28;20105;-75
2022/04/14 00:04:39;;;;;;;0.80;0.80;;;7.80;99.90;;;;;;5229261;28;20036;-73
2022/04/14 00:07:16;;;;;;;0.70;0.70;;;7.80;99.90;;;;;;5241433;28;20055;-74
2022/04/14 00:09:50;;;;;;;1.00;1.00;;;7.70;99.90;;;;;;5242445;28;20472;-74
2022/04/14 00:12:24;;;;;;;0.93;0.93;;;7.60;99.90;;;;;;5224703;28;20064;-74
2022/04/14 00:15:01;;;;;;;0.73;0.73;;;7.60;99.90;;;;;;5241720;28;20047;-73
2022/04/14 00:17:33;;;;;;;0.70;0.70;;;7.50;99.90;;;;;;5224122;28;20032;-75
2022/04/14 00:20:08;;;;;;;0.90;0.90;;;7.40;99.90;;;;;;5227845;28;20368;-75
2022/04/14 00:22:42;;;;;;;0.93;0.93;;;7.40;99.90;;;;;;5203651;28;20017;-76
2022/04/14 00:25:19;;;;;;;0.90;0.90;;;7.40;99.90;;;;;;5225776;28;20013;-73
2022/04/14 00:27:56;;;;;;;0.77;0.77;;;7.50;99.90;;;;;;5225116;28;20033;-74
2022/04/14 00:30:29;;;;;;;1.55;1.45;;;7.50;99.90;;;;;;5223130;28;20896;-74
2022/04/14 00:33:05;;;;;;;1.55;1.45;;;7.60;99.90;;;;;;5242015;28;20222;-74
2022/04/14 00:35:37;;;;;;;0.52;0.52;;;7.40;99.90;;;;;;5241693;28;20040;-74
2022/04/14 00:38:13;;;;;;;0.70;0.70;;;7.30;99.90;;;;;;5242191;28;20461;-76
2022/04/14 00:40:48;;;;;;;1.00;1.00;;;7.20;99.90;;;;;;5211961;28;20056;-74
2022/04/14 00:43:21;;;;;;;0.98;0.98;;;7.30;99.90;;;;;;5204466;28;20033;-75
2022/04/14 00:45:52;;;;;;;1.10;1.10;;;7.20;99.90;;;;;;5202496;28;20033;-73
2022/04/14 00:48:24;;;;;;;0.90;0.90;;;7.20;99.90;;;;;;5220386;28;20029;-74
2022/04/14 00:51:07;;;;;;;0.80;0.80;;;7.20;99.90;;;;;;5168874;28;20072;-74
2022/04/14 00:53:46;;;;;;;0.93;0.93;;;7.10;99.90;;;;;;5221547;28;20039;-75
2022/04/14 00:56:21;;;;;;;0.90;0.90;;;7.20;99.90;;;;;;5202842;28;20036;-75
2022/04/14 00:58:58;;;;;;;0.80;0.80;;;7.30;99.90;;;;;;5221052;28;20257;-74
2022/04/14 01:01:32;;;;;;;0.73;0.73;;;7.30;99.90;;;;;;5188033;28;20033;-74
2022/04/14 01:04:05;;;;;;;0.80;0.80;;;7.40;99.90;;;;;;5186350;28;20060;-75
2022/04/14 01:06:39;;;;;;;1.02;1.02;;;7.40;99.90;;;;;;5193883;28;20120;-75
2022/04/14 01:09:19;;;;;;;0.60;0.60;;;7.30;99.90;;;;;;5203267;28;20396;-74
2022/04/14 01:11:53;;;;;;;1.02;1.02;;;7.30;99.90;;;;;;5220257;28;20029;-73
2022/04/14 01:14:32;;;;;;;1.67;1.58;;;7.30;99.90;;;;;;5219661;28;20036;-76
2022/04/14 01:17:09;;;;;;;0.60;0.60;;;7.20;99.90;;;;;;5204196;28;20037;-74
2022/04/14 01:19:43;;;;;;;1.00;1.00;;;7.30;99.90;;;;;;5221239;28;20021;-74
2022/04/14 01:22:35;;;;;;;0.82;0.82;;;7.20;99.90;;;;;;5221291;28;20044;-76
2022/04/14 01:25:07;;;;;;;0.47;0.47;;;7.20;99.90;;;;;;5220822;28;20025;-73
2022/04/14 01:27:42;;;;;;;1.33;1.23;;;7.40;99.90;;;;;;5241843;28;20043;-76
2022/04/14 01:30:13;;;;;;;;;;;7.50;99.90;;;;;;5242255;28;20026;-74
2022/04/14 01:32:50;;;;;;;1.25;1.20;;;7.50;99.90;;;;;;5240864;28;19912;-72
2022/04/14 01:35:25;;;;;;;1.13;1.13;;;7.50;99.90;;;;;;5241732;28;20043;-74
2022/04/14 01:38:00;;;;;;;0.80;0.80;;;7.40;99.90;;;;;;5206269;28;20362;-74
2022/04/14 01:40:34;;;;;;;0.93;0.93;;;7.30;99.90;;;;;;5223691;28;20055;-74
2022/04/14 01:43:06;;;;;;;0.82;0.82;;;7.30;99.90;;;;;;5204448;28;20501;-74
2022/04/14 01:45:37;;;;;;;0.80;0.80;;;7.50;99.90;;;;;;5220314;28;20025;-74
2022/04/14 01:48:13;;;;;;;10.45;1.58;;;7.50;99.90;;;;;;5220553;28;20024;-73
2022/04/14 01:50:51;;;;;;;1.00;1.00;;;7.60;99.90;;;;;;5202344;28;20050;-74
2022/04/14 01:53:22;;;;;;;1.00;1.00;;;7.70;99.90;;;;;;5224355;28;20040;-74
2022/04/14 01:56:02;;;;;;;1.30;1.30;;;7.80;99.90;;;;;;5228978;28;20269;-74
2022/04/14 01:58:33;;;;;;;0.57;0.57;;;7.90;99.90;;;;;;5240471;28;20041;-75
2022/04/14 02:01:05;;;;;;;0.70;0.70;;;7.90;99.90;;;;;;5209056;28;20048;-74
2022/04/14 02:03:39;;;;;;;1.08;1.08;;;7.90;99.90;;;;;;5220938;28;20021;-75
2022/04/14 02:06:14;;;;;;;1.33;1.33;;;7.80;99.90;;;;;;5226122;28;20044;-75
2022/04/14 02:08:50;;;;;;;1.27;1.27;;;7.70;99.90;;;;;;5240828;28;20038;-74
2022/04/14 02:11:22;;;;;;;0.82;0.82;;;7.50;99.90;;;;;;5217462;28;20375;-74
2022/04/14 02:13:54;;;;;;;1.35;1.35;;;7.40;99.90;;;;;;5201809;28;20035;-74
2022/04/14 02:16:31;;;;;;;0.60;0.60;;;7.20;99.90;;;;;;5204796;28;20043;-74
2022/04/14 02:19:03;;;;;;;0.77;0.77;;;7.20;99.90;;;;;;5195299;28;20028;-76
2022/04/14 02:21:37;;;;;;;0.90;0.90;;;7.20;99.90;;;;;;5186213;28;20028;-73
2022/04/14 02:24:13;;;;;;;;;;;7.20;99.90;;;;;;5197996;28;20359;-75
2022/04/14 02:26:45;;;;;;;1.55;1.48;;;7.20;99.90;;;;;;5219316;28;20321;-73
2022/04/14 02:29:20;;;;;;;0.85;0.85;;;7.20;99.90;;;;;;5219678;28;20039;-74
2022/04/14 02:31:57;;;;;;;2.20;2.10;;;7.20;99.90;;;;;;5222739;28;20055;-74
2022/04/14 02:34:30;;;;;;;0.80;0.80;;;7.40;99.90;;;;;;5224797;28;20021;-74
2022/04/14 02:37:05;;;;;;;0.80;0.80;;;7.40;99.90;;;;;;5206839;28;20078;-74
2022/04/14 02:39:42;;;;;;;0.90;0.90;;;7.40;99.90;;;;;;5201818;28;20511;-75
2022/04/14 02:42:16;;;;;;;1.08;1.08;;;7.40;99.90;;;;;;5199933;28;20027;-75
2022/04/14 02:44:47;;;;;;;1.00;1.00;;;7.40;99.90;;;;;;5203456;28;20027;-74
2022/04/14 02:47:21;;;;;;;1.00;1.00;;;7.20;99.90;;;;;;5185780;28;20021;-74
2022/04/14 02:49:52;;;;;;;0.77;0.77;;;7.10;99.90;;;;;;5184841;28;20018;-74
2022/04/14 02:52:29;;;;;;;0.68;0.68;;;7.00;99.90;;;;;;5202833;28;20033;-74
2022/04/14 02:55:09;;;;;;;0.85;0.85;;;6.90;99.90;;;;;;5185957;28;20033;-74
2022/04/14 02:57:41;;;;;;;0.82;0.82;;;6.80;99.90;;;;;;5149687;28;20034;-74
2022/04/14 03:00:19;;;;;;;0.82;0.82;;;6.80;99.90;;;;;;5182325;28;20024;-73
2022/04/14 03:02:55;;;;;;;0.70;0.70;;;6.90;99.90;;;;;;5190694;28;20231;-74
2022/04/14 03:05:29;;;;;;;0.80;0.80;;;6.80;99.90;;;;;;5192239;28;20043;-74
2022/04/14 03:08:03;;;;;;;;;;;6.70;99.90;;;;;;5202446;28;20030;-74
2022/04/14 03:10:36;;;;;;;0.80;0.80;;;6.70;99.90;;;;;;5202104;28;20222;-73
2022/04/14 03:13:16;;;;;;;0.65;0.65;;;6.60;99.90;;;;;;5203229;28;20021;-75
2022/04/14 03:15:53;;;;;;;0.80;0.80;;;6.60;99.90;;;;;;5212978;28;20057;-74
2022/04/14 03:18:27;;;;;;;0.90;0.90;;;6.50;99.90;;;;;;5205604;28;20025;-74
2022/04/14 03:21:04;;;;;;;0.80;0.80;;;6.40;99.90;;;;;;5223190;28;20504;-75
2022/04/14 03:23:39;;;;;;;0.90;0.90;;;6.30;99.90;;;;;;5205382;28;20036;-74
2022/04/14 03:26:10;;;;;;;1.00;1.00;;;6.30;99.90;;;;;;5211800;28;20321;-73
2022/04/14 03:28:48;;;;;;;1.00;1.00;;;6.20;99.90;;;;;;5205204;28;20029;-74
2022/04/14 03:31:22;;;;;;;0.77;0.77;;;6.20;99.90;;;;;;5202605;28;20231;-74
2022/04/14 03:34:01;;;;;;;0.80;0.80;;;6.20;99.90;;;;;;5184625;28;20032;-75
2022/04/14 03:36:37;;;;;;;0.80;0.80;;;6.10;99.90;;;;;;5187200;28;20360;-74
2022/04/14 03:39:14;;;;;;;0.80;0.80;;;6.10;99.90;;;;;;5187839;28;20200;-75
2022/04/14 03:41:45;;;;;;;0.80;0.80;;;6.10;99.90;;;;;;5207555;28;20215;-75
2022/04/14 03:44:21;;;;;;;0.70;0.70;;;6.10;99.90;;;;;;5201891;28;20026;-74
2022/04/14 03:46:52;;;;;;;1.00;1.00;;;6.10;99.90;;;;;;5202115;28;20204;-74
2022/04/14 03:49:28;;;;;;;0.60;0.60;;;6.10;99.90;;;;;;5202274;28;20018;-76
2022/04/14 03:52:03;;;;;;;0.63;0.63;;;6.10;99.90;;;;;;5205233;28;20017;-74
2022/04/14 03:54:39;;;;;;;0.68;0.68;;;6.20;99.90;;;;;;5210792;28;20040;-75
2022/04/14 03:57:17;;;;;;;0.70;0.70;;;6.30;99.90;;;;;;5224321;28;20033;-73
2022/04/14 03:59:52;;;;;;;0.60;0.60;;;6.40;99.90;;;;;;5224426;28;20037;-74
2022/04/14 04:02:26;;;;;;;1.13;1.13;;;6.40;99.90;;;;;;5205526;28;20063;-75
2022/04/14 04:04:57;;;;;;;0.70;0.70;;;6.50;99.90;;;;;;5190370;28;20037;-73
2022/04/14 04:07:29;;;;;;;0.57;0.57;;;6.50;99.90;;;;;;5200081;28;20014;-76
2022/04/14 04:10:02;;;;;;;0.77;0.77;;;6.50;99.90;;;;;;5200723;28;20030;-73
2022/04/14 04:12:34;;;;;;;0.98;0.98;;;6.60;99.90;;;;;;5201724;28;20020;-74
2022/04/14 04:15:14;;;;;;;1.33;1.33;;;6.70;99.90;;;;;;5226566;28;20255;-75
2022/04/14 04:17:51;;;;;;;0.80;0.80;;;6.70;99.90;;;;;;5225537;28;20275;-74
2022/04/14 04:20:25;;;;;;;2.35;1.58;;;6.80;99.90;;;;;;5225925;28;20020;-73
2022/04/14 04:23:04;;;;;;;1.05;1.05;;;6.90;99.90;;;;;;5242997;28;20017;-74
2022/04/14 04:25:38;;;;;;;0.90;0.90;;;7.00;99.90;;;;;;5211539;28;20055;-74
2022/04/14 04:28:15;;;;;;;1.00;1.00;;;7.10;99.90;;;;;;5208523;28;20039;-73
2022/04/14 04:30:49;;;;;;;3.13;2.28;;;7.20;99.90;;;;;;5243689;28;20028;-75
2022/04/14 04:33:23;;;;;;;1.13;1.13;;;7.30;99.90;;;;;;5243556;28;20016;-75
2022/04/14 04:35:56;;;;;;;0.70;0.70;;;7.40;99.90;;;;;;5212668;28;20473;-75
2022/04/14 04:38:31;;;;;;;0.90;0.90;;;7.50;99.90;;;;;;5222755;28;20043;-74
2022/04/14 04:41:04;;;;;;;0.93;0.93;;;7.50;99.90;;;;;;5222903;28;20064;-76
2022/04/14 04:43:36;;;;;;;0.80;0.80;;;7.50;99.90;;;;;;5222667;28;20468;-74
2022/04/14 04:46:10;;;;;;;0.73;0.73;;;7.40;99.90;;;;;;5223330;28;20024;-74
2022/04/14 04:48:44;;;;;;;0.73;0.73;;;7.60;99.90;;;;;;5204905;28;20067;-73
2022/04/14 04:51:18;;;;;;;0.82;0.82;;;7.70;99.90;;;;;;5222848;28;20335;-74
2022/04/14 04:53:50;;;;;;;1.00;1.00;;;7.90;99.90;;;;;;5188276;28;20028;-75
2022/04/14 04:56:27;;;;;;;1.38;1.38;;;7.90;99.90;;;;;;5198593;28;20040;-74
2022/04/14 04:59:04;;;;;;;0.75;0.75;;;7.90;99.90;;;;;;5225691;28;20353;-76
2022/04/14 05:01:36;;;;;;;0.88;0.88;;;7.90;99.90;;;;;;5220989;28;20044;-74
2022/04/14 05:04:09;;;;;;;1.00;1.00;;;7.80;99.90;;;;;;5221255;28;20065;-74
2022/04/14 05:06:40;;;;;;;1.35;1.35;;;7.80;99.90;;;;;;5162102;28;20073;-75
2022/04/14 05:09:12;;;;;;;0.70;0.70;;;7.90;99.90;;;;;;5222087;28;20029;-74
2022/04/14 05:11:44;;;;;;;0.82;0.82;;;7.90;99.90;;;;;;5222684;28;20035;-74
2022/04/14 05:14:18;;;;;;;1.08;1.08;;;8.10;99.90;;;;;;5222652;28;20024;-75
2022/04/14 05:16:49;;;;;;;1.05;1.02;;;8.30;99.90;;;;;;5222832;28;20342;-74
2022/04/14 05:19:23;;;;;;;8.85;3.67;;;8.30;99.90;;;;;;5222573;28;20208;-75
2022/04/14 05:21:57;;;;;;;0.80;0.80;;;8.40;99.90;;;;;;5221607;28;20041;-76
2022/04/14 05:24:34;;;;;;;1.13;1.13;;;8.50;99.90;;;;;;5222686;28;20323;-76
2022/04/14 05:27:10;;;;;;;0.65;0.65;;;8.50;99.90;;;;;;5239203;28;20666;-75
2022/04/14 05:29:41;;;;;;;0.70;0.70;;;8.60;99.90;;;;;;5242699;28;20044;-75
2022/04/14 05:32:19;;;;;;;1.48;1.38;;;8.80;99.90;;;;;;5242252;28;20028;-76
2022/04/14 05:34:53;;;;;;;1.20;1.20;;;8.90;99.90;;;;;;5220684;28;20119;-74
2022/04/14 05:37:25;;;;;;;1.05;1.05;;;9.10;99.90;;;;;;5204621;28;20028;-75
2022/04/14 05:39:56;;;;;;;0.90;0.90;;;9.30;99.90;;;;;;5227456;28;20207;-74
2022/04/14 05:42:28;;;;;;;0.60;0.60;;;9.40;99.90;;;;;;5225725;28;20030;-75
2022/04/14 05:45:04;;;;;;;1.15;1.15;;;9.70;99.90;;;;;;5224647;28;20028;-76
2022/04/14 05:47:38;;;;;;;1.23;1.17;;;10.00;99.90;;;;;;5243220;28;20332;-76
2022/04/14 05:50:09;;;;;;;0.80;0.80;;;10.50;99.90;;;;;;5243331;28;20047;-77
2022/04/14 05:52:43;;;;;;;0.88;0.88;;;10.90;99.90;;;;;;5208972;28;20033;-75
2022/04/14 05:55:15;;;;;;;1.00;1.00;;;11.40;99.90;;;;;;5225001;28;20029;-75
2022/04/14 05:57:46;;;;;;;0.80;0.80;;;11.80;99.90;;;;;;5225702;28;20025;-75
2022/04/14 06:00:20;;;;;;;0.88;0.88;;;12.10;99.90;;;;;;5237266;28;20021;-75
2022/04/14 06:02:51;;;;;;;1.88;1.65;;;12.50;99.90;;;;;;5214407;28;20037;-75
2022/04/14 06:05:27;;;;;;;1.88;1.77;;;12.90;99.90;;;;;;5211579;28;20035;-74
2022/04/14 06:08:01;;;;;;;0.70;0.70;;;13.10;99.90;;;;;;5233795;28;20825;-77
2022/04/14 06:10:35;;;;;;;1.55;1.45;;;13.50;99.90;;;;;;5228868;28;20034;-74
2022/04/14 06:13:08;;;;;;;1.27;1.27;;;13.80;99.90;;;;;;5247345;28;20032;-76
2022/04/14 06:15:44;;;;;;;0.70;0.70;;;13.90;99.90;;;;;;5219598;28;20242;-75
2022/04/14 06:18:16;;;;;;;0.77;0.77;;;14.20;99.90;;;;;;5208911;28;20364;-77
2022/04/14 06:20:48;;;;;;;0.82;0.80;;;14.40;99.90;;;;;;5226322;28;20029;-77
2022/04/14 06:23:25;;;;;;;0.95;0.95;;;14.80;99.90;;;;;;5226635;28;20039;-77
2022/04/14 06:25:56;;;;;;;0.68;0.68;;;14.90;99.90;;;;;;5206213;28;20021;-75
2022/04/14 06:28:36;;;;;;;0.60;0.60;;;15.20;99.90;;;;;;5204570;28;20029;-75
2022/04/14 06:31:11;;;;;;;1.58;1.48;;;15.50;99.90;;;;;;5214225;28;20051;-75
2022/04/14 06:33:44;;;;;;;;;;;15.60;99.90;;;;;;5214339;28;20024;-77
2022/04/14 06:36:18;;;;;;;0.52;0.52;;;15.70;99.90;;;;;;5225548;28;19913;-76
2022/04/14 06:38:51;;;;;;;0.68;0.68;;;16.00;99.90;;;;;;5209329;28;20253;-75
2022/04/14 06:41:25;;;;;;;1.52;1.05;;;16.20;99.90;;;;;;5226483;28;20025;-76
2022/04/14 06:43:59;;;;;;;1.05;1.05;;;16.10;99.90;;;;;;5207657;28;20035;-75
2022/04/14 06:46:31;;;;;;;0.70;0.70;;;16.20;99.90;;;;;;5172334;28;20021;-75
2022/04/14 06:49:07;;;;;;;0.60;0.60;;;16.30;99.90;;;;;;5201632;28;20503;-76
2022/04/14 06:51:46;;;;;;;0.77;0.77;;;16.50;99.90;;;;;;5205760;28;20036;-76
2022/04/14 06:54:19;;;;;;;1.20;1.20;;;16.70;99.90;;;;;;5186963;28;20033;-74
2022/04/14 06:56:58;;;;;;;0.90;0.90;;;16.60;99.90;;;;;;5219812;28;20025;-76
2022/04/14 06:59:30;;;;;;;0.98;0.98;;;16.70;99.90;;;;;;5198343;28;20052;-75
2022/04/14 07:02:04;;;;;;;0.60;0.60;;;16.40;99.90;;;;;;5205996;28;20036;-74
2022/04/14 07:04:38;;;;;;;0.98;0.98;;;16.30;99.90;;;;;;5177757;28;20055;-75
2022/04/14 07:07:12;;;;;;;1.25;1.25;;;16.60;99.90;;;;;;5188126;28;20625;-76
2022/04/14 07:09:44;;;;;;;0.70;0.70;;;16.70;99.90;;;;;;5189370;28;20235;-75
2022/04/14 07:12:20;;;;;;;0.80;0.80;;;16.70;99.90;;;;;;5206069;28;20276;-77
2022/04/14 07:14:53;;;;;;;0.70;0.70;;;16.90;99.90;;;;;;5188090;28;20031;-77
2022/04/14 07:17:27;;;;;;;0.60;0.60;;;17.20;99.90;;;;;;5204591;28;20524;-75
2022/04/14 07:19:59;;;;;;;0.60;0.60;;;17.60;99.90;;;;;;5205480;28;20203;-76
2022/04/14 07:22:52;;;;;;;1.20;1.20;;;17.90;99.90;;;;;;5171042;28;20041;-76
2022/04/14 07:25:25;;;;;;;0.52;0.52;;;18.10;99.90;;;;;;5203106;28;20021;-75
2022/04/14 07:28:00;;;;;;;1.30;1.20;;;18.50;99.90;;;;;;5198442;28;20029;-75
2022/04/14 07:30:32;;;;;;;;;;;18.60;99.90;;;;;;5180377;28;20025;-75
2022/04/14 07:33:06;;;;;;;0.60;0.60;;;18.80;99.90;;;;;;5190891;28;20306;-77
2022/04/14 07:35:37;;;;;;;0.73;0.73;;;19.10;99.90;;;;;;5207838;28;20338;-77
2022/04/14 07:38:15;;;;;;;0.63;0.63;;;19.10;99.90;;;;;;5168506;28;20032;-77
2022/04/14 07:40:47;;;;;;;0.80;0.80;;;18.90;99.90;;;;;;5219187;28;20227;-74
2022/04/14 07:43:19;;;;;;;2.72;2.13;;;19.00;99.90;;;;;;5224996;28;20017;-76
2022/04/14 07:45:54;;;;;;;1.17;1.17;;;19.40;99.90;;;;;;5190936;28;20049;-75
2022/04/14 07:48:26;;;;;;;1.35;1.35;;;19.40;99.90;;;;;;5191205;28;20033;-76
2022/04/14 07:51:01;;;;;;;0.50;0.50;;;19.90;99.90;;;;;;5221012;28;20031;-76
2022/04/14 07:53:35;;;;;;;0.90;0.90;;;20.00;99.90;;;;;;5204301;28;20021;-76
2022/04/14 07:56:07;;;;;;;0.40;0.40;;;20.20;99.90;;;;;;5176574;28;20037;-76
2022/04/14 07:58:45;;;;;;;0.60;0.60;;;20.20;99.90;;;;;;5200280;28;20612;-75
2022/04/14 08:01:20;;;;;;;0.80;0.80;;;20.70;99.90;;;;;;5206524;28;20333;-75
2022/04/14 08:03:54;;;;;;;0.82;0.82;;;20.20;99.90;;;;;;5186697;28;20032;-76
2022/04/14 08:06:27;;;;;;;0.90;0.90;;;20.30;99.90;;;;;;5145954;28;20047;-76
2022/04/14 08:09:04;;;;;;;1.38;1.27;;;21.10;99.90;;;;;;5208688;28;20027;-77
2022/04/14 08:11:36;;;;;;;0.50;0.50;;;21.60;99.90;;;;;;5189281;28;20041;-76
2022/04/14 08:14:11;;;;;;;1.55;1.48;;;22.20;99.90;;;;;;5220141;28;20035;-76
2022/04/14 08:16:49;;;;;;;0.43;0.43;;;22.10;99.90;;;;;;5222270;28;20035;-76
2022/04/14 08:19:20;;;;;;;0.40;0.40;;;21.60;99.90;;;;;;5240234;28;20033;-77
2022/04/14 08:21:52;;;;;;;0.50;0.50;;;21.80;99.90;;;;;;5225054;28;20017;-75
2022/04/14 08:24:27;;;;;;;0.80;0.80;;;22.20;99.90;;;;;;5238745;28;20028;-74
2022/04/14 08:27:06;;;;;;;0.40;0.40;;;22.30;99.90;;;;;;5226543;28;20033;-77
2022/04/14 08:29:39;;;;;;;0.50;0.50;;;21.40;99.90;;;;;;5173844;28;20048;-75
2022/04/14 08:32:14;;;;;;;2.00;1.02;;;20.30;99.90;;;;;;5223616;28;20035;-74
2022/04/14 08:34:45;;;;;;;0.55;0.55;;;20.30;99.90;;;;;;5233489;28;20529;-77
2022/04/14 08:37:17;;;;;;;4.13;1.58;;;20.70;99.90;;;;;;5241233;28;20042;-76
2022/04/14 08:39:50;;;;;;;0.40;0.40;;;21.10;99.90;;;;;;5225521;28;20028;-77
2022/04/14 08:42:34;;;;;;;0.73;0.73;;;21.50;99.90;;;;;;5179533;28;20242;-74
2022/04/14 08:45:13;;;;;;;0.57;0.57;;;22.20;99.90;;;;;;5204612;28;20032;-75
2022/04/14 08:47:45;;;;;;;0.50;0.50;;;22.80;99.90;;;;;;5221145;28;20012;-75
2022/04/14 08:50:17;;;;;;;0.57;0.57;;;22.60;99.90;;;;;;5187800;28;20033;-75
2022/04/14 08:52:52;;;;;;;20.88;1.20;;;22.50;99.90;;;;;;5221314;28;20021;-78
2022/04/14 08:55:24;;;;;;;;;;;22.10;99.90;;;;;;5209035;28;20510;-77
2022/04/14 08:57:59;;;;;;;0.70;0.63;;;21.70;99.90;;;;;;5204977;28;20159;-77
2022/04/14 09:00:32;;;;;;;0.57;0.57;;;22.20;99.90;;;;;;5188331;28;20040;-75
2022/04/14 09:03:07;;;;;;;0.50;0.50;;;22.30;99.90;;;;;;5222760;28;20021;-74
2022/04/14 09:05:40;;;;;;;;;;;22.40;99.90;;;;;;5194292;28;20414;-76
2022/04/14 09:08:16;;;;;;;0.60;0.60;;;22.50;99.90;;;;;;5220223;28;19913;-75
2022/04/14 09:10:49;;;;;;;0.60;0.60;;;23.40;99.90;;;;;;5234778;28;20509;-76
2022/04/14 09:13:21;;;;;;;0.77;0.77;;;22.70;99.90;;;;;;5202718;28;20037;-75
2022/04/14 09:15:55;;;;;;;1.67;1.58;;;22.80;99.90;;;;;;5202450;28;20028;-76
2022/04/14 09:18:28;;;;;;;0.47;0.47;;;23.00;99.90;;;;;;5220220;28;20047;-76
2022/04/14 09:21:07;;;;;;;0.30;0.30;;;22.40;99.90;;;;;;5220587;28;20048;-76
2022/04/14 09:23:51;;;;;;;0.85;0.85;;;22.10;99.90;;;;;;5201698;28;20028;-75
2022/04/14 09:26:24;;;;;;;0.60;0.60;;;22.80;99.90;;;;;;5223656;28;20045;-76
2022/04/14 09:29:12;;;;;;;1.15;1.15;;;23.20;99.90;;;;;;5219818;28;20036;-75
2022/04/14 09:31:49;;;;;;;1.20;1.00;;;23.50;99.90;;;;;;5220695;28;20020;-76
2022/04/14 09:34:51;;;;;;;0.40;0.40;;;23.40;99.90;;;;;;5219755;28;20299;-77
2022/04/14 09:37:24;;;;;;;0.85;0.85;;;24.30;99.90;;;;;;5230681;28;20036;-76
2022/04/14 09:40:09;;;;;;;0.38;0.38;;;24.20;99.90;;;;;;5223777;28;20342;-74
2022/04/14 09:42:53;;;;;;;0.80;0.80;;;24.30;99.90;;;;;;5226426;28;20260;-73
2022/04/14 09:45:29;;;;;;;1.08;1.08;;;24.20;99.90;;;;;;5224206;28;20055;-76
2022/04/14 09:48:07;;;;;;;0.50;0.50;;;24.40;99.90;;;;;;5205065;28;20608;-77
2022/04/14 09:50:47;;;;;;;0.32;0.32;;;24.60;99.90;;;;;;5207073;28;20020;-77
2022/04/14 09:53:21;;;;;;;0.40;0.40;;;24.30;99.90;;;;;;5204889;28;20063;-75
2022/04/14 09:55:55;;;;;;;0.80;0.80;;;24.20;99.90;;;;;;5190407;28;20561;-76
2022/04/14 09:58:31;;;;;;;0.57;0.57;;;24.80;99.90;;;;;;5239395;28;20024;-75
2022/04/14 10:01:04;;;;;;;0.65;0.65;;;24.80;99.90;;;;;;5213319;28;20043;-74
2022/04/14 10:03:41;;;;;;;0.80;0.80;;;24.50;99.90;;;;;;5190365;28;20037;-76
2022/04/14 10:06:15;;;;;;;0.80;0.80;;;24.80;99.90;;;;;;5212453;28;20049;-76
2022/04/14 10:08:53;;;;;;;0.82;0.80;;;25.10;99.90;;;;;;5206093;28;20147;-75
2022/04/14 10:11:30;;;;;;;0.50;0.50;;;24.90;99.90;;;;;;5223057;28;20037;-77
2022/04/14 10:14:18;;;;;;;0.70;0.70;;;24.60;99.90;;;;;;5240770;28;20028;-76
2022/04/14 10:16:57;;;;;;;1.75;1.00;;;24.50;99.90;;;;;;5226649;28;20039;-75
2022/04/14 10:19:31;;;;;;;0.30;0.30;;;25.00;99.90;;;;;;5226149;28;20266;-74
2022/04/14 10:22:08;;;;;;;1.00;1.00;;;25.60;99.90;;;;;;5225121;28;20257;-77
2022/04/14 10:24:41;;;;;;;0.50;0.50;;;26.00;99.90;;;;;;5224185;28;20051;-75
2022/04/14 10:27:17;;;;;;;0.75;0.75;;;25.90;99.90;;;;;;5190789;28;20043;-75
2022/04/14 10:29:49;;;;;;;0.40;0.40;;;25.90;99.90;;;;;;5206047;28;20254;-74
2022/04/14 10:32:27;;;;;;;0.35;0.35;;;26.30;99.90;;;;;;5205500;28;20031;-75
2022/04/14 10:35:08;;;;;;;1.48;1.38;;;26.50;99.90;;;;;;5234629;28;20310;-77
2022/04/14 10:37:54;;;;;;;0.60;0.60;;;26.20;99.90;;;;;;5225815;28;20036;-74
2022/04/14 10:40:30;;;;;;;0.45;0.45;;;27.10;99.90;;;;;;5209098;28;20203;-75
2022/04/14 10:43:13;;;;;;;3.53;0.50;;;26.50;99.90;;;;;;5205796;28;20213;-77
2022/04/14 10:45:54;;;;;;;0.85;0.85;;;27.00;99.90;;;;;;5210299;28;20261;-76
2022/04/14 10:48:40;;;;;;;0.73;0.73;;;28.20;99.90;;;;;;5188434;28;20320;-75
2022/04/14 10:51:26;;;;;;;0.47;0.47;;;29.30;99.90;;;;;;5199804;28;20009;-74
2022/04/14 10:54:04;;;;;;;0.82;0.82;;;29.10;99.20;;;;;;5222364;28;20017;-75
2022/04/14 10:56:41;;;;;;;0.40;0.40;;;28.10;99.90;;;;;;5204968;28;20245;-75
2022/04/14 10:59:17;;;;;;;0.35;0.32;;;29.30;99.90;;;;;;5223140;28;20037;-75
2022/04/14 11:01:51;;;;;;;0.95;0.95;;;28.80;98.80;;;;;;5222500;28;20219;-75
2022/04/14 11:04:42;;;;;;;;;;;29.70;99.10;;;;;;5214062;28;20059;-76
2022/04/14 11:07:26;;;;;;;0.82;0.82;;;30.90;97.90;;;;;;5232986;28;20034;-76
2022/04/14 11:10:01;;;;;;;0.50;0.50;;;30.40;96.20;;;;;;5204857;28;20032;-74
2022/04/14 11:12:41;;;;;;;0.85;0.85;;;30.20;96.50;;;;;;5189479;28;20029;-75
2022/04/14 11:15:29;;;;;;;0.50;0.50;;;31.70;96.00;;;;;;5200189;28;20029;-75
2022/04/14 11:18:07;;;;;;;0.95;0.90;;;31.50;95.50;;;;;;5182602;28;20032;-77
2022/04/14 11:20:44;;;;;;;0.40;0.40;;;29.70;95.30;;;;;;5182848;28;20029;-74
2022/04/14 11:23:28;;;;;;;0.60;0.60;;;29.40;95.30;;;;;;5200379;28;20892;-75
2022/04/14 11:26:19;;;;;;;29.08;2.25;;;29.00;96.20;;;;;;5176741;28;20276;-75
2022/04/14 11:28:57;;;;;;;0.50;0.50;;;29.30;97.30;;;;;;5196248;28;20036;-75
2022/04/14 11:31:34;;;;;;;0.38;0.38;;;30.10;96.10;;;;;;5196615;28;20028;-74
2022/04/14 11:34:06;;;;;;;8.88;1.33;;;30.40;94.70;;;;;;5209914;28;20368;-74
2022/04/14 11:36:46;;;;;;;1.30;1.23;;;31.10;94.60;;;;;;5171860;28;20025;-74
2022/04/14 11:39:25;;;;;;;0.77;0.77;;;30.70;93.20;;;;;;5183844;28;20360;-75
2022/04/14 11:42:10;;;;;;;0.73;0.73;;;29.50;94.30;;;;;;5167352;28;20068;-75
2022/04/14 11:44:42;;;;;;;0.50;0.50;;;30.50;94.20;;;;;;5199310;28;20048;-74
2022/04/14 11:47:16;;;;;;;4.05;1.38;;;31.30;93.70;;;;;;5200556;28;20327;-75
2022/04/14 11:49:50;;;;;;;0.75;0.75;;;30.80;92.90;;;;;;5200243;28;20041;-74
2022/04/14 11:52:25;;;;;;;0.60;0.60;;;31.10;93.70;;;;;;5183223;28;20044;-73
2022/04/14 11:54:58;;;;;;;0.73;0.73;;;31.40;93.80;;;;;;5200972;28;20147;-74
2022/04/14 11:57:31;;;;;;;1.02;0.70;;;31.00;93.00;;;;;;5203705;28;20025;-75
2022/04/14 12:00:15;;;;;;;0.60;0.60;;;31.30;92.60;;;;;;5198785;28;20041;-74
2022/04/14 12:02:57;;;;;;;0.83;0.83;;;31.80;92.30;;;;;;5200937;28;20347;-76
2022/04/14 12:05:30;;;;;;;1.05;1.05;;;32.90;92.00;;;;;;5201301;28;20041;-75
2022/04/14 12:08:11;;;;;;;0.40;0.40;;;32.60;91.60;;;;;;5205119;28;20207;-75
2022/04/14 12:10:48;;;;;;;1.27;1.17;;;30.60;92.30;;;;;;5201366;28;20063;-75
2022/04/14 12:13:24;;;;;;;0.55;0.55;;;31.00;91.60;;;;;;5200855;28;20053;-75
2022/04/14 12:16:13;;;;;;;0.55;0.55;;;29.70;92.30;;;;;;5207140;28;20053;-76
2022/04/14 12:18:55;;;;;;;0.85;0.85;;;28.80;92.30;;;;;;5197254;28;20032;-77
2022/04/14 12:21:27;;;;;;;0.63;0.63;;;28.40;92.60;;;;;;5165958;28;20046;-73
2022/04/14 12:24:03;;;;;;;0.82;0.82;;;27.60;93.20;;;;;;5166045;28;20045;-76
2022/04/14 12:26:40;;;;;;;0.75;0.75;;;29.30;93.00;;;;;;5192831;28;20036;-76
2022/04/14 12:29:14;;;;;;;0.52;0.52;;;30.50;92.20;;;;;;5162836;28;20324;-75
2022/04/14 12:31:48;;;;;;;;;;;31.30;91.60;;;;;;5190145;28;20041;-77
2022/04/14 12:34:22;;;;;;;0.63;0.63;;;31.30;91.70;;;;;;5181954;28;20441;-73
2022/04/14 12:37:13;;;;;;;0.68;0.68;;;31.10;91.70;;;;;;5183182;28;20053;-75
2022/04/14 12:40:10;;;;;;;0.50;0.50;;;31.00;91.20;;;;;;5183886;28;20342;-74
2022/04/14 12:42:46;;;;;;;0.85;0.85;;;28.90;91.80;;;;;;5183231;28;20487;-75
2022/04/14 12:45:20;;;;;;;1.63;1.13;;;29.70;92.30;;;;;;5171290;28;20343;-77
2022/04/14 12:47:51;;;;;;;20.05;1.77;;;28.80;92.60;;;;;;5210038;28;20029;-76
2022/04/14 12:50:28;;;;;;;0.73;0.73;;;28.10;92.70;;;;;;5202352;28;20031;-74
2022/04/14 12:53:02;;;;;;;0.70;0.70;;;28.40;92.80;;;;;;5183210;28;20031;-73
2022/04/14 12:55:40;;;;;;;0.40;0.40;;;30.00;92.00;;;;;;5204348;28;20017;-75
2022/04/14 12:58:18;;;;;;;1.85;1.08;;;30.50;91.80;;;;;;5220883;28;20483;-74
2022/04/14 13:01:13;;;;;;;0.40;0.40;;;30.40;91.50;;;;;;5192243;28;20029;-75
2022/04/14 13:03:51;;;;;;;0.75;0.75;;;31.00;91.30;;;;;;5201103;28;20025;-76
2022/04/14 13:06:41;;;;;;;0.57;0.55;;;30.10;91.10;;;;;;5157889;28;20403;-74
2022/04/14 13:09:16;;;;;;;0.52;0.52;;;29.80;91.70;;;;;;5200240;28;20025;-76
2022/04/14 13:11:48;;;;;;;0.70;0.70;;;29.80;91.60;;;;;;5181403;28;20021;-76
2022/04/14 13:14:27;;;;;;;0.40;0.40;;;28.90;92.20;;;;;;5204715;28;20033;-77
2022/04/14 13:17:05;;;;;;;0.80;0.80;;;29.40;91.60;;;;;;5185961;28;20041;-75
2022/04/14 13:19:41;;;;;;;1.00;0.75;;;29.60;91.50;;;;;;5200177;28;20475;-76
2022/04/14 13:22:13;;;;;;;0.57;0.57;;;29.40;91.20;;;;;;5182824;28;20021;-75
2022/04/14 13:24:49;;;;;;;0.57;0.57;;;29.30;91.90;;;;;;5199371;28;20027;-77
2022/04/14 13:27:25;;;;;;;1.42;1.35;;;29.40;91.70;;;;;;5219129;28;20376;-76
2022/04/14 13:29:56;;;;;;;0.63;0.63;;;29.10;91.40;;;;;;5218527;28;20059;-74
2022/04/14 13:32:28;;;;;;;0.80;0.80;;;28.90;91.30;;;;;;5186695;28;20334;-77
2022/04/14 13:35:03;;;;;;;1.08;1.05;;;28.90;91.30;;;;;;5220475;28;20056;-76
2022/04/14 13:37:36;;;;;;;0.75;0.75;;;28.00;91.40;;;;;;5202136;28;20600;-74